createdAt,value
2023-01-10T00:01:34.435Z,6.90
2023-01-10T00:04:01.631Z,6.90
2023-01-10T00:06:31.943Z,6.90
2023-01-10T00:08:59.288Z,6.90
2023-01-10T00:11:45.126Z,6.90
2023-01-10T00:14:12.367Z,6.90
2023-01-10T00:16:40.619Z,6.90
2023-01-10T00:19:08.506Z,6.90
2023-01-10T00:21:35.920Z,6.90
2023-01-10T00:24:17.596Z,7.00
2023-01-10T00:26:51.356Z,7.10
2023-01-10T00:29:27.819Z,7.10
2023-01-10T00:31:55.474Z,7.10
2023-01-10T00:34:23.056Z,7.20
2023-01-10T00:36:50.354Z,7.20
2023-01-10T00:39:20.417Z,7.20
2023-01-10T00:42:06.286Z,7.20
2023-01-10T00:44:33.404Z,7.20
2023-01-10T00:47:00.719Z,7.20
2023-01-10T00:49:27.925Z,7.20
2023-01-10T00:51:58.300Z,7.20
2023-01-10T00:54:28.570Z,7.30
2023-01-10T00:56:58.850Z,7.30
2023-01-10T00:59:26.076Z,7.30
2023-01-10T01:01:53.566Z,7.30
2023-01-10T01:04:20.869Z,7.30
2023-01-10T01:06:49.034Z,7.30
2023-01-10T01:09:16.849Z,7.30
2023-01-10T01:11:44.106Z,7.30
2023-01-10T01:14:11.654Z,7.30
2023-01-10T01:16:38.852Z,7.30
2023-01-10T01:19:05.996Z,7.40
2023-01-10T01:21:34.140Z,7.40
2023-01-10T01:24:01.525Z,7.30
2023-01-10T01:26:28.899Z,7.30
2023-01-10T01:28:55.978Z,7.30
2023-01-10T01:31:23.121Z,7.30
2023-01-10T01:33:51.607Z,7.30
2023-01-10T01:36:18.773Z,7.30
2023-01-10T01:38:46.067Z,7.30
2023-01-10T01:41:32.133Z,7.30
2023-01-10T01:44:07.831Z,7.30
2023-01-10T01:46:38.091Z,7.30
2023-01-10T01:49:09.531Z,7.30
2023-01-10T01:51:36.706Z,7.30
2023-01-10T01:54:12.104Z,7.40
2023-01-10T01:56:51.924Z,7.30
2023-01-10T01:59:41.020Z,7.30
2023-01-10T02:03:02.152Z,7.30
2023-01-10T02:05:33.904Z,7.30
2023-01-10T02:08:04.099Z,7.30
2023-01-10T02:10:53.683Z,7.30
2023-01-10T02:13:25.508Z,7.30
2023-01-10T02:15:52.755Z,7.30
2023-01-10T02:18:21.278Z,7.30
2023-01-10T02:21:13.321Z,7.30
2023-01-10T02:24:07.676Z,7.30
2023-01-10T02:26:46.178Z,7.30
2023-01-10T02:29:35.881Z,7.40
2023-01-10T02:32:48.056Z,7.30
2023-01-10T02:35:35.593Z,7.30
2023-01-10T02:38:23.935Z,7.20
2023-01-10T02:41:20.666Z,7.10
2023-01-10T02:44:28.281Z,7.10
2023-01-10T02:46:57.076Z,7.10
2023-01-10T02:49:24.261Z,7.10
2023-01-10T02:51:51.473Z,7.00
2023-01-10T02:54:30.775Z,7.00
2023-01-10T02:57:22.482Z,7.00
2023-01-10T03:00:10.585Z,7.00
2023-01-10T03:03:15.612Z,7.00
2023-01-10T03:05:57.382Z,6.90
2023-01-10T03:08:50.930Z,6.90
2023-01-10T03:11:38.284Z,7.00
2023-01-10T03:14:27.336Z,6.90
2023-01-10T03:17:09.724Z,6.90
2023-01-10T03:19:45.759Z,6.90
2023-01-10T03:22:14.908Z,6.80
2023-01-10T03:24:56.181Z,6.80
2023-01-10T03:27:34.585Z,6.80
2023-01-10T03:30:24.741Z,6.70
2023-01-10T03:32:52.688Z,6.70
2023-01-10T03:35:23.281Z,6.70
2023-01-10T03:38:05.724Z,6.70
2023-01-10T03:40:48.589Z,6.70
2023-01-10T03:43:50.194Z,6.70
2023-01-10T03:46:51.711Z,6.70
2023-01-10T03:49:23.034Z,6.60
2023-01-10T03:51:51.726Z,6.60
2023-01-10T03:54:18.953Z,6.60
2023-01-10T03:56:51.665Z,6.50
2023-01-10T03:59:27.847Z,6.50
2023-01-10T04:01:56.070Z,6.50
2023-01-10T04:04:23.369Z,6.60
2023-01-10T04:06:53.502Z,6.50
2023-01-10T04:09:20.646Z,6.50
2023-01-10T04:11:47.835Z,6.50
2023-01-10T04:14:14.969Z,6.50
2023-01-10T04:16:42.104Z,6.40
2023-01-10T04:19:09.365Z,6.40
2023-01-10T04:21:36.612Z,6.40
2023-01-10T04:24:04.050Z,6.40
2023-01-10T04:26:31.251Z,6.40
2023-01-10T04:29:01.643Z,6.40
2023-01-10T04:31:29.239Z,6.30
2023-01-10T04:33:56.356Z,6.30
2023-01-10T04:36:23.590Z,6.30
2023-01-10T04:38:50.926Z,6.30
2023-01-10T04:41:18.033Z,6.30
2023-01-10T04:43:45.242Z,6.30
2023-01-10T04:46:12.384Z,6.30
2023-01-10T04:48:39.557Z,6.30
2023-01-10T04:51:06.773Z,6.20
2023-01-10T04:53:34.059Z,6.20
2023-01-10T04:56:09.622Z,6.20
2023-01-10T04:58:39.613Z,6.20
2023-01-10T05:01:23.644Z,6.20
2023-01-10T05:03:56.251Z,6.20
2023-01-10T05:06:25.019Z,6.20
2023-01-10T05:08:52.263Z,6.20
2023-01-10T05:11:19.416Z,6.20
2023-01-10T05:13:48.114Z,6.20
2023-01-10T05:16:16.111Z,6.20
2023-01-10T05:18:43.434Z,6.20
2023-01-10T05:21:13.198Z,6.20
2023-01-10T05:23:41.164Z,6.10
2023-01-10T05:26:11.818Z,6.10
2023-01-10T05:28:39.837Z,6.10
2023-01-10T05:31:14.146Z,6.10
2023-01-10T05:33:49.013Z,6.10
2023-01-10T05:36:19.907Z,6.10
2023-01-10T05:38:47.232Z,6.10
2023-01-10T05:41:14.721Z,6.20
2023-01-10T05:43:41.977Z,6.20
2023-01-10T05:46:09.411Z,6.20
2023-01-10T05:48:36.685Z,6.10
2023-01-10T05:51:04.087Z,6.20
2023-01-10T05:53:31.170Z,6.20
2023-01-10T05:56:01.500Z,6.20
2023-01-10T05:58:31.761Z,6.20
2023-01-10T06:00:59.127Z,6.20
2023-01-10T06:03:26.976Z,6.20
2023-01-10T06:05:57.557Z,6.20
2023-01-10T06:08:25.550Z,6.20
2023-01-10T06:10:53.031Z,6.20
2023-01-10T06:13:20.523Z,6.30
2023-01-10T06:15:47.922Z,6.30
2023-01-10T06:18:15.929Z,6.40
2023-01-10T06:20:45.903Z,6.40
2023-01-10T06:23:13.128Z,6.30
2023-01-10T06:25:41.682Z,6.30
2023-01-10T06:28:11.089Z,6.30
2023-01-10T06:30:43.421Z,6.30
2023-01-10T06:33:12.223Z,6.30
2023-01-10T06:35:39.818Z,6.40
2023-01-10T06:38:07.183Z,6.30
2023-01-10T06:40:34.296Z,6.40
2023-01-10T06:43:01.519Z,6.30
2023-01-10T06:45:28.752Z,6.40
2023-01-10T06:47:55.912Z,6.30
2023-01-10T06:50:23.383Z,6.40
2023-01-10T06:53:02.605Z,6.30
2023-01-10T06:55:31.072Z,6.30
2023-01-10T06:58:04.896Z,6.30
2023-01-10T07:00:32.447Z,6.30
2023-01-10T07:03:01.713Z,6.30
2023-01-10T07:05:34.037Z,6.30
2023-01-10T07:08:01.504Z,6.30
2023-01-10T07:10:28.935Z,6.30
2023-01-10T07:12:56.897Z,6.30
2023-01-10T07:15:24.670Z,6.40
2023-01-10T07:17:51.874Z,6.40
2023-01-10T07:20:19.787Z,6.40
2023-01-10T07:22:58.932Z,6.40
2023-01-10T07:25:28.836Z,6.40
2023-01-10T07:27:56.073Z,6.40
2023-01-10T07:30:28.104Z,6.40
2023-01-10T07:32:59.216Z,6.50
2023-01-10T07:35:26.854Z,6.40
2023-01-10T07:37:53.951Z,6.40
2023-01-10T07:40:21.149Z,6.40
2023-01-10T07:42:48.481Z,6.40
2023-01-10T07:45:15.606Z,6.40
2023-01-10T07:47:42.780Z,6.50
2023-01-10T07:50:10.753Z,6.50
2023-01-10T07:52:38.516Z,6.50
2023-01-10T07:55:06.941Z,6.50
2023-01-10T07:57:34.112Z,6.60
2023-01-10T08:00:01.245Z,6.60
2023-01-10T08:02:28.736Z,6.60
2023-01-10T08:04:56.039Z,6.60
2023-01-10T08:07:23.298Z,6.70
2023-01-10T08:09:50.409Z,6.80
2023-01-10T08:12:17.513Z,6.80
2023-01-10T08:14:44.646Z,6.90
2023-01-10T08:17:11.798Z,6.90
2023-01-10T08:19:38.969Z,6.90
2023-01-10T08:22:06.129Z,6.90
2023-01-10T08:24:33.262Z,7.00
2023-01-10T08:27:02.080Z,7.00
2023-01-10T08:29:30.016Z,7.00
2023-01-10T08:31:57.495Z,7.00
2023-01-10T08:34:24.973Z,7.00
2023-01-10T08:36:53.935Z,7.10
2023-01-10T08:39:22.487Z,7.10
2023-01-10T08:41:49.924Z,7.20
2023-01-10T08:44:17.549Z,7.20
2023-01-10T08:46:45.875Z,7.20
2023-01-10T08:49:13.256Z,7.30
2023-01-10T08:51:40.526Z,7.30
2023-01-10T08:54:07.887Z,7.40
2023-01-10T08:56:37.588Z,7.40
2023-01-10T08:59:04.700Z,7.40
2023-01-10T09:01:32.080Z,7.40
2023-01-10T09:03:59.901Z,7.40
2023-01-10T09:06:27.173Z,7.50
2023-01-10T09:08:54.538Z,7.50
2023-01-10T09:11:21.691Z,7.50
2023-01-10T09:13:52.221Z,7.60
2023-01-10T09:16:19.703Z,7.60
2023-01-10T09:18:47.223Z,7.60
2023-01-10T09:21:14.387Z,7.60
2023-01-10T09:23:43.608Z,7.60
2023-01-10T09:26:12.063Z,7.60
2023-01-10T09:28:39.356Z,7.70
2023-01-10T09:31:09.063Z,7.70
2023-01-10T09:33:46.113Z,7.80
2023-01-10T09:36:15.696Z,7.80
2023-01-10T09:38:44.067Z,7.80
2023-01-10T09:41:33.425Z,7.80
2023-01-10T09:44:45.940Z,7.80
2023-01-10T09:47:40.002Z,7.80
2023-01-10T09:50:29.563Z,7.80
2023-01-10T09:53:24.121Z,7.90
2023-01-10T09:56:00.086Z,7.90
2023-01-10T09:58:32.010Z,7.90
2023-01-10T10:01:06.289Z,7.90
2023-01-10T10:03:53.851Z,8.00
2023-01-10T10:06:23.580Z,8.00
2023-01-10T10:08:52.378Z,8.00
2023-01-10T10:11:25.767Z,8.00
2023-01-10T10:14:13.046Z,8.10
2023-01-10T10:16:54.819Z,8.10
2023-01-10T10:20:00.166Z,8.10
2023-01-10T10:23:02.932Z,8.10
2023-01-10T10:25:51.177Z,8.10
2023-01-10T10:28:55.111Z,8.20
2023-01-10T10:31:53.198Z,8.30
2023-01-10T10:34:51.421Z,8.30
2023-01-10T10:37:39.627Z,8.30
2023-01-10T10:40:22.668Z,8.30
2023-01-10T10:42:54.258Z,8.30
2023-01-10T10:45:48.226Z,8.30
2023-01-10T10:48:23.038Z,8.40
2023-01-10T10:51:16.130Z,8.40
2023-01-10T10:53:43.282Z,8.40
2023-01-10T10:56:16.142Z,8.40
2023-01-10T10:58:48.462Z,8.50
2023-01-10T11:01:17.101Z,8.50
2023-01-10T11:03:50.078Z,8.50
2023-01-10T11:06:20.128Z,8.50
2023-01-10T11:08:52.596Z,8.60
2023-01-10T11:11:35.649Z,8.60
2023-01-10T11:14:06.347Z,8.70
2023-01-10T11:16:46.722Z,8.70
2023-01-10T11:19:21.534Z,8.80
2023-01-10T11:22:03.423Z,8.70
2023-01-10T11:24:49.461Z,8.80
2023-01-10T11:27:21.786Z,8.80
2023-01-10T11:30:00.135Z,8.90
2023-01-10T11:32:40.138Z,8.90
2023-01-10T11:35:25.265Z,9.00
2023-01-10T11:38:18.117Z,9.00
2023-01-10T11:40:58.107Z,9.10
2023-01-10T11:43:36.571Z,9.10
2023-01-10T11:46:26.216Z,9.20
2023-01-10T11:49:09.721Z,9.30
2023-01-10T11:51:51.265Z,9.30
2023-01-10T11:54:26.434Z,9.40
2023-01-10T11:57:17.565Z,9.40
2023-01-10T12:00:03.550Z,9.40
2023-01-10T12:02:43.652Z,9.50
2023-01-10T12:05:19.909Z,9.50
2023-01-10T12:08:10.535Z,9.60
2023-01-10T12:10:37.786Z,9.60
2023-01-10T12:13:16.883Z,9.60
2023-01-10T12:15:44.268Z,9.60
2023-01-10T12:18:12.227Z,9.60
2023-01-10T12:20:49.606Z,9.70
2023-01-10T12:23:22.157Z,9.60
2023-01-10T12:25:53.210Z,9.70
2023-01-10T12:28:30.212Z,9.70
2023-01-10T12:31:00.332Z,9.60
2023-01-10T12:33:37.457Z,9.60
2023-01-10T12:36:16.597Z,9.60
2023-01-10T12:39:05.792Z,9.70
2023-01-10T12:42:28.375Z,9.70
2023-01-10T12:45:14.922Z,9.90
2023-01-10T12:48:09.883Z,9.80
2023-01-10T12:51:01.723Z,9.70
2023-01-10T12:53:33.459Z,9.70
2023-01-10T12:56:07.804Z,9.70
2023-01-10T12:58:44.230Z,9.80
2023-01-10T13:01:28.314Z,9.90
2023-01-10T13:04:09.635Z,10.00
2023-01-10T13:06:43.094Z,10.10
2023-01-10T13:09:23.444Z,10.00
2023-01-10T13:12:35.897Z,10.00
2023-01-10T13:15:32.309Z,9.90
2023-01-10T13:18:15.695Z,9.80
2023-01-10T13:20:43.840Z,9.90
2023-01-10T13:23:30.162Z,9.90
2023-01-10T13:26:05.266Z,10.20
2023-01-10T13:28:35.616Z,10.40
2023-01-10T13:31:23.299Z,10.50
2023-01-10T13:34:01.345Z,10.40
2023-01-10T13:36:35.590Z,10.20
2023-01-10T13:39:39.949Z,10.10
2023-01-10T13:42:25.834Z,9.90
2023-01-10T13:45:04.331Z,9.80
2023-01-10T13:47:40.543Z,9.70
2023-01-10T13:50:23.337Z,9.60
2023-01-10T13:53:14.793Z,9.50
2023-01-10T13:55:53.544Z,9.40
2023-01-10T13:58:43.661Z,9.40
2023-01-10T14:01:58.344Z,9.40
2023-01-10T14:04:30.037Z,9.40
2023-01-10T14:07:42.750Z,9.30
2023-01-10T14:10:21.168Z,9.30
2023-01-10T14:13:09.439Z,9.30
2023-01-10T14:15:46.722Z,9.20
2023-01-10T14:18:45.915Z,9.20
2023-01-10T14:21:28.628Z,9.20
2023-01-10T14:23:57.687Z,9.10
2023-01-10T14:26:41.857Z,9.10
2023-01-10T14:29:15.852Z,9.00
2023-01-10T14:31:48.884Z,9.10
2023-01-10T14:34:36.917Z,9.00
2023-01-10T14:37:29.788Z,9.00
2023-01-10T14:39:57.729Z,8.90
2023-01-10T14:42:28.216Z,8.90
2023-01-10T14:45:23.360Z,8.90
2023-01-10T14:47:50.457Z,8.90
2023-01-10T14:50:27.747Z,8.90
2023-01-10T14:52:56.176Z,8.80
2023-01-10T14:55:23.686Z,8.80
2023-01-10T14:58:02.294Z,8.70
2023-01-10T15:00:33.639Z,8.70
2023-01-10T15:03:04.189Z,8.70
2023-01-10T15:05:39.407Z,8.70
2023-01-10T15:08:33.296Z,8.60
2023-01-10T15:11:06.693Z,8.60
2023-01-10T15:13:43.970Z,8.70
2023-01-10T15:16:24.658Z,8.60
2023-01-10T15:18:51.904Z,8.60
2023-01-10T15:21:22.252Z,8.60
2023-01-10T15:23:50.475Z,8.50
2023-01-10T15:26:30.821Z,8.50
2023-01-10T15:29:25.118Z,8.50
2023-01-10T15:32:11.127Z,8.50
2023-01-10T15:34:39.785Z,8.40
2023-01-10T15:37:15.587Z,8.40
2023-01-10T15:39:46.061Z,8.40
2023-01-10T15:42:13.305Z,8.30
2023-01-10T15:44:55.767Z,8.30
2023-01-10T15:47:51.167Z,8.30
2023-01-10T15:50:28.937Z,8.20
2023-01-10T15:53:04.135Z,8.20
2023-01-10T15:55:41.497Z,8.10
2023-01-10T15:58:35.004Z,8.10
2023-01-10T16:01:04.648Z,8.00
2023-01-10T16:03:44.532Z,7.90
2023-01-10T16:06:34.036Z,7.90
2023-01-10T16:09:17.276Z,7.90
2023-01-10T16:12:12.237Z,7.90
2023-01-10T16:14:39.425Z,7.90
2023-01-10T16:17:06.765Z,7.90
2023-01-10T16:19:36.802Z,7.90
2023-01-10T16:22:04.799Z,7.90
2023-01-10T16:24:36.301Z,7.90
2023-01-10T16:27:06.333Z,8.00
2023-01-10T16:29:34.194Z,7.90
2023-01-10T16:32:01.755Z,7.90
2023-01-10T16:34:28.951Z,7.90
2023-01-10T16:36:56.113Z,7.90
2023-01-10T16:39:24.119Z,7.90
2023-01-10T16:42:13.404Z,7.90
2023-01-10T16:44:41.724Z,7.80
2023-01-10T16:47:08.970Z,7.80
2023-01-10T16:49:36.121Z,7.80
2023-01-10T16:52:03.880Z,7.80
2023-01-10T16:54:31.352Z,7.80
2023-01-10T16:56:58.592Z,7.80
2023-01-10T16:59:25.782Z,7.80
2023-01-10T17:01:57.951Z,7.80
2023-01-10T17:04:30.083Z,7.80
2023-01-10T17:06:57.439Z,7.80
2023-01-10T17:09:28.512Z,7.80
2023-01-10T17:12:03.638Z,7.80
2023-01-10T17:14:36.177Z,7.80
2023-01-10T17:17:04.618Z,7.80
2023-01-10T17:19:31.867Z,7.70
2023-01-10T17:22:00.427Z,7.70
2023-01-10T17:24:29.749Z,7.70
2023-01-10T17:26:57.012Z,7.70
2023-01-10T17:29:24.297Z,7.70
2023-01-10T17:31:51.527Z,7.70
2023-01-10T17:34:18.725Z,7.70
2023-01-10T17:36:45.866Z,7.60
2023-01-10T17:39:13.010Z,7.60
2023-01-10T17:41:40.170Z,7.60
2023-01-10T17:46:34.938Z,7.60
2023-01-10T17:49:03.267Z,7.60
2023-01-10T17:51:30.474Z,7.60
2023-01-10T17:53:58.339Z,7.60
2023-01-10T17:56:25.652Z,7.60
2023-01-10T17:58:53.688Z,7.60
2023-01-10T18:01:25.429Z,7.60
2023-01-10T18:03:53.383Z,7.60
2023-01-10T18:06:25.339Z,7.60
2023-01-10T18:08:54.235Z,7.60
2023-01-10T18:11:25.139Z,7.60
2023-01-10T18:13:52.633Z,7.50
2023-01-10T18:16:19.892Z,7.60
2023-01-10T18:18:47.350Z,7.60
2023-01-10T18:21:17.988Z,7.60
2023-01-10T18:23:46.883Z,7.60
2023-01-10T18:26:14.815Z,7.60
2023-01-10T18:28:44.942Z,7.60
2023-01-10T18:31:18.487Z,7.50
2023-01-10T18:33:48.208Z,7.60
2023-01-10T18:36:19.199Z,7.50
2023-01-10T18:38:47.955Z,7.60
2023-01-10T18:41:17.251Z,7.50
2023-01-10T18:43:44.693Z,7.50
2023-01-10T18:46:15.411Z,7.50
2023-01-10T18:48:43.706Z,7.50
2023-01-10T18:51:15.804Z,7.60
2023-01-10T18:53:43.923Z,7.60
2023-01-10T18:56:12.291Z,7.50
2023-01-10T18:58:43.875Z,7.60
2023-01-10T19:01:18.217Z,7.60
2023-01-10T19:03:47.046Z,7.60
2023-01-10T19:06:18.186Z,7.60
2023-01-10T19:09:05.619Z,7.50
2023-01-10T19:11:33.349Z,7.50
2023-01-10T19:14:02.464Z,7.50
2023-01-10T19:16:35.654Z,7.50
2023-01-10T19:19:11.195Z,7.40
2023-01-10T19:21:40.094Z,7.40
2023-01-10T19:24:30.190Z,7.40
2023-01-10T19:27:04.896Z,7.30
2023-01-10T19:29:32.665Z,7.30
2023-01-10T19:32:00.815Z,7.30
2023-01-10T19:34:28.243Z,7.30
2023-01-10T19:36:56.140Z,7.30
2023-01-10T19:39:23.734Z,7.30
2023-01-10T19:41:50.909Z,7.30
2023-01-10T19:44:21.844Z,7.30
2023-01-10T19:46:50.429Z,7.30
2023-01-10T19:49:19.729Z,7.30
2023-01-10T19:51:56.544Z,7.30
2023-01-10T19:54:27.016Z,7.30
2023-01-10T19:56:54.644Z,7.20
2023-01-10T19:59:21.899Z,7.20
2023-01-10T20:01:49.712Z,7.20
2023-01-10T20:04:18.476Z,7.20
2023-01-10T20:06:47.536Z,7.20
2023-01-10T20:09:15.883Z,7.20
2023-01-10T20:11:46.474Z,7.10
2023-01-10T20:14:18.772Z,7.10
2023-01-10T20:16:48.016Z,7.10
2023-01-10T20:19:17.630Z,7.00
2023-01-10T20:21:45.648Z,7.00
2023-01-10T20:24:21.587Z,7.00
2023-01-10T20:26:50.786Z,7.00
2023-01-10T20:29:21.399Z,6.90
2023-01-10T20:31:52.876Z,6.90
2023-01-10T20:34:22.868Z,6.90
2023-01-10T20:36:52.822Z,6.80
2023-01-10T20:39:22.084Z,6.80
2023-01-10T20:41:50.119Z,6.80
2023-01-10T20:44:17.752Z,6.80
2023-01-10T20:46:47.971Z,6.80
2023-01-10T20:49:15.768Z,6.80
2023-01-10T20:51:42.959Z,6.80
2023-01-10T20:54:11.960Z,6.80
2023-01-10T20:56:42.321Z,6.80
2023-01-10T20:59:09.574Z,6.80
2023-01-10T21:01:36.817Z,6.80
2023-01-10T21:04:07.122Z,6.80
2023-01-10T21:06:35.944Z,6.70
2023-01-10T21:09:04.257Z,6.70
2023-01-10T21:11:31.467Z,6.70
2023-01-10T21:13:59.779Z,6.70
2023-01-10T21:16:30.235Z,6.70
2023-01-10T21:19:03.325Z,6.70
2023-01-10T21:21:30.601Z,6.70
2023-01-10T21:23:57.742Z,6.60
2023-01-10T21:26:24.948Z,6.60
2023-01-10T21:28:52.057Z,6.60
2023-01-10T21:31:21.884Z,6.60
2023-01-10T21:33:49.697Z,6.60
2023-01-10T21:36:17.729Z,6.60
2023-01-10T21:38:45.212Z,6.60
2023-01-10T21:41:38.363Z,6.60
2023-01-10T21:44:07.352Z,6.60
2023-01-10T21:46:34.895Z,6.50
2023-01-10T21:49:03.435Z,6.50
2023-01-10T21:51:30.702Z,6.50
2023-01-10T21:53:57.940Z,6.50
2023-01-10T21:56:25.244Z,6.50
2023-01-10T21:58:52.390Z,6.50
2023-01-10T22:01:19.752Z,6.50
2023-01-10T22:03:47.051Z,6.50
2023-01-10T22:06:14.296Z,6.50
2023-01-10T22:08:42.330Z,6.50
2023-01-10T22:11:11.044Z,6.40
2023-01-10T22:13:39.083Z,6.50
2023-01-10T22:16:07.099Z,6.40
2023-01-10T22:18:34.433Z,6.50
2023-01-10T22:21:01.708Z,6.50
2023-01-10T22:23:30.797Z,6.50
2023-01-10T22:26:05.007Z,6.50
2023-01-10T22:28:32.400Z,6.50
2023-01-10T22:31:00.206Z,6.50
2023-01-10T22:33:32.874Z,6.40
2023-01-10T22:36:15.395Z,6.40
2023-01-10T22:38:43.749Z,6.40
2023-01-10T22:41:26.927Z,6.40
2023-01-10T22:43:55.373Z,6.40
2023-01-10T22:46:23.331Z,6.40
2023-01-10T22:48:50.550Z,6.40
2023-01-10T22:51:25.542Z,6.40
2023-01-10T22:53:55.916Z,6.40
2023-01-10T22:56:24.149Z,6.40
2023-01-10T22:58:52.173Z,6.40
2023-01-10T23:01:21.729Z,6.40
2023-01-10T23:03:49.710Z,6.40
2023-01-10T23:06:18.861Z,6.40
2023-01-10T23:08:46.857Z,6.40
2023-01-10T23:11:18.331Z,6.30
2023-01-10T23:13:47.035Z,6.40
2023-01-10T23:16:21.171Z,6.30
2023-01-10T23:18:49.535Z,6.30
2023-01-10T23:21:17.343Z,6.30
2023-01-10T23:23:44.478Z,6.30
2023-01-10T23:26:13.442Z,6.40
2023-01-10T23:28:46.828Z,6.40
2023-01-10T23:31:20.979Z,6.40
2023-01-10T23:33:49.387Z,6.40
2023-01-10T23:36:18.419Z,6.40
2023-01-10T23:38:45.602Z,6.30
2023-01-10T23:41:13.113Z,6.30
2023-01-10T23:43:40.299Z,6.30
2023-01-10T23:46:07.701Z,6.30
2023-01-10T23:48:35.417Z,6.30
2023-01-10T23:51:02.628Z,6.30
2023-01-10T23:53:29.740Z,6.30
2023-01-10T23:56:05.036Z,6.30
2023-01-10T23:58:35.098Z,6.30
